Terminal Aerodrome Forecast
Issued by NWS Rapid City, SD

Home | Current Version | Previous Version | Graphics & Text | Print | Product List | Glossary On
Versions: 1 2 3 4 5 6 7 8 9 10 11 12 13 14 15 16
000
FTUS43 KUNR 281724
TAFRAP
TAF
KRAP 281724Z 2818/2918 VRB06KT 6SM FU SCT250=

USA.gov is the U.S. government's official web portal to all federal, state and local government web resources and services.